Time;durP1;ratioP1;P1;durP2;ratioP2;P2;SDS_P1;SDS_P2;PMS_P1;PMS_P2;Temp;Humidity;BMP_temperature;BMP_pressure;BME280_temperature;BME280_humidity;BME280_pressure;Samples;Min_cycle;Max_cycle;Signal;HPM_P1;HPM_P2
2023/09/20 00:02:00;;;;;;;3.47;1.60;;;13.10;99.90;;;;;;5067488;28;20177;-62
2023/09/20 00:04:29;;;;;;;4.43;1.70;;;13.10;99.90;;;;;;5070440;28;20526;-61
2023/09/20 00:06:56;;;;;;;6.22;1.30;;;13.10;99.90;;;;;;5065803;28;20053;-62
2023/09/20 00:09:23;;;;;;;4.22;1.60;;;13.10;99.90;;;;;;5070624;28;20111;-61
2023/09/20 00:11:51;;;;;;;2.85;1.30;;;13.10;99.90;;;;;;5069863;28;20036;-62
2023/09/20 00:14:17;;;;;;;3.33;1.17;;;13.00;99.90;;;;;;5065006;28;20520;-61
2023/09/20 00:16:44;;;;;;;3.33;1.42;;;13.00;99.90;;;;;;5069819;28;20041;-60
2023/09/20 00:19:11;;;;;;;1.88;1.20;;;13.00;99.90;;;;;;5070683;28;20042;-60
2023/09/20 00:21:38;;;;;;;4.10;1.10;;;13.00;99.90;;;;;;5069970;28;20048;-62
2023/09/20 00:24:05;;;;;;;2.80;1.05;;;12.90;99.90;;;;;;5056626;28;20436;-62
2023/09/20 00:26:33;;;;;;;3.78;1.17;;;13.00;99.90;;;;;;5070169;28;20032;-61
2023/09/20 00:29:06;;;;;;;4.60;1.30;;;13.00;99.90;;;;;;5068739;28;20813;-62
2023/09/20 00:31:34;;;;;;;5.50;1.35;;;13.00;99.90;;;;;;5069966;28;20028;-62
2023/09/20 00:34:03;;;;;;;1.98;1.30;;;13.00;99.90;;;;;;5060295;28;20048;-61
2023/09/20 00:36:31;;;;;;;1.40;1.30;;;13.00;99.90;;;;;;5069649;28;20041;-62
2023/09/20 00:38:58;;;;;;;1.30;1.20;;;13.00;99.90;;;;;;5065149;28;20079;-61
2023/09/20 00:41:25;;;;;;;1.98;1.58;;;12.90;99.90;;;;;;5068673;28;20051;-62
2023/09/20 00:43:53;;;;;;;2.45;1.30;;;12.90;99.90;;;;;;5068170;28;20048;-62
2023/09/20 00:46:21;;;;;;;2.42;1.10;;;12.90;99.90;;;;;;5067562;28;20036;-62
2023/09/20 00:48:50;;;;;;;;;;;12.80;99.90;;;;;;5065502;28;20146;-62
2023/09/20 00:51:21;;;;;;;5.18;1.33;;;12.80;99.90;;;;;;5069670;28;20015;-62
2023/09/20 00:53:54;;;;;;;6.68;1.70;;;12.70;99.90;;;;;;5070083;28;20072;-62
2023/09/20 00:56:21;;;;;;;5.78;1.05;;;12.60;99.90;;;;;;5057222;28;20447;-62
2023/09/20 00:58:50;;;;;;;2.05;1.02;;;12.50;99.90;;;;;;5068399;28;20049;-62
2023/09/20 01:01:18;;;;;;;1.50;0.95;;;12.40;99.90;;;;;;5059837;28;20123;-61
2023/09/20 01:03:47;;;;;;;4.00;1.50;;;12.50;99.90;;;;;;5069710;28;20061;-62
2023/09/20 01:06:15;;;;;;;2.83;1.30;;;12.40;99.90;;;;;;5070188;28;20064;-61
2023/09/20 01:08:42;;;;;;;4.88;1.27;;;12.40;99.90;;;;;;5072462;28;20111;-61
2023/09/20 01:11:09;;;;;;;3.08;1.20;;;12.50;99.90;;;;;;5070848;28;20044;-62
2023/09/20 01:13:38;;;;;;;5.80;0.80;;;12.40;99.90;;;;;;5072117;28;20098;-62
2023/09/20 01:16:05;;;;;;;2.10;1.08;;;12.40;99.90;;;;;;5071791;28;20048;-61
2023/09/20 01:18:32;;;;;;;3.53;1.27;;;12.40;99.90;;;;;;5070290;28;20190;-62
2023/09/20 01:20:59;;;;;;;3.40;1.30;;;12.40;99.90;;;;;;5073646;28;20029;-62
2023/09/20 01:23:27;;;;;;;3.33;1.13;;;12.30;99.90;;;;;;5073053;28;20032;-61
2023/09/20 01:25:56;;;;;;;4.15;1.00;;;12.30;99.90;;;;;;5066203;28;20044;-62
2023/09/20 01:28:26;;;;;;;1.80;1.00;;;12.40;99.90;;;;;;5071739;28;20094;-61
2023/09/20 01:30:53;;;;;;;1.63;1.10;;;12.40;99.90;;;;;;5072585;28;20032;-62
2023/09/20 01:33:22;;;;;;;1.90;1.00;;;12.30;99.90;;;;;;5065373;28;20052;-61
2023/09/20 01:35:49;;;;;;;3.20;1.45;;;12.30;99.90;;;;;;5057370;28;20040;-61
2023/09/20 01:38:16;;;;;;;2.45;1.00;;;12.40;99.90;;;;;;5067106;28;20653;-62
2023/09/20 01:40:46;;;;;;;1.92;1.38;;;12.30;99.90;;;;;;5063421;28;20040;-62
2023/09/20 01:43:13;;;;;;;1.98;1.10;;;12.30;99.90;;;;;;5071145;28;20624;-62
2023/09/20 01:45:43;;;;;;;4.25;0.98;;;12.30;99.90;;;;;;5071907;28;20037;-62
2023/09/20 01:48:11;;;;;;;1.88;1.13;;;12.30;99.90;;;;;;5064785;28;20064;-60
2023/09/20 01:50:41;;;;;;;2.83;1.20;;;12.30;99.90;;;;;;5071411;28;20098;-62
2023/09/20 01:53:10;;;;;;;2.97;1.20;;;12.20;99.90;;;;;;5071510;28;20492;-62
2023/09/20 01:55:41;;;;;;;6.07;1.30;;;12.30;99.90;;;;;;5070432;28;20044;-61
2023/09/20 01:58:12;;;;;;;4.00;1.17;;;12.30;99.90;;;;;;5071690;28;20064;-62
2023/09/20 02:00:40;;;;;;;8.45;1.08;;;12.20;99.90;;;;;;5070515;28;20500;-62
2023/09/20 02:03:13;;;;;;;4.18;1.27;;;12.20;99.90;;;;;;5072154;28;20397;-62
2023/09/20 02:05:41;;;;;;;3.33;1.17;;;12.20;99.90;;;;;;5072291;28;20649;-61
2023/09/20 02:08:08;;;;;;;3.15;1.45;;;12.20;99.90;;;;;;5070586;28;20044;-60
2023/09/20 02:10:37;;;;;;;2.75;1.50;;;12.20;99.90;;;;;;5071714;28;20731;-62
2023/09/20 02:13:04;;;;;;;2.30;1.30;;;12.20;99.90;;;;;;5065217;28;20044;-62
2023/09/20 02:15:31;;;;;;;;;;;12.20;99.90;;;;;;5072277;28;20045;-61
2023/09/20 02:17:59;;;;;;;4.25;1.92;;;12.20;99.90;;;;;;5070736;28;20514;-62
2023/09/20 02:20:26;;;;;;;2.10;1.30;;;12.20;99.90;;;;;;5070161;28;20044;-62
2023/09/20 02:22:55;;;;;;;4.47;1.60;;;12.10;99.90;;;;;;5070859;28;20090;-62
2023/09/20 02:25:24;;;;;;;1.80;1.33;;;12.10;99.90;;;;;;5070668;28;20130;-62
2023/09/20 02:27:52;;;;;;;6.35;2.08;;;12.10;99.90;;;;;;5071255;28;20553;-61
2023/09/20 02:30:24;;;;;;;3.95;1.95;;;12.20;99.90;;;;;;5059839;28;20033;-62
2023/09/20 02:32:54;;;;;;;4.30;1.38;;;12.10;99.90;;;;;;5072203;28;20036;-61
2023/09/20 02:35:25;;;;;;;2.05;1.50;;;12.20;99.90;;;;;;5065469;28;20416;-62
2023/09/20 02:37:53;;;;;;;3.22;1.52;;;12.20;99.90;;;;;;5062648;28;20537;-61
2023/09/20 02:40:23;;;;;;;7.03;2.45;;;12.10;99.90;;;;;;5070674;28;20044;-62
2023/09/20 02:42:53;;;;;;;4.45;1.25;;;12.10;99.90;;;;;;5063589;28;20041;-61
2023/09/20 02:45:25;;;;;;;5.40;1.70;;;12.00;99.90;;;;;;5070445;28;20052;-61
2023/09/20 02:47:52;;;;;;;3.85;1.90;;;12.00;99.90;;;;;;5070565;28;20032;-61
2023/09/20 02:50:23;;;;;;;3.75;1.70;;;12.00;99.90;;;;;;5065735;28;20041;-62
2023/09/20 02:52:51;;;;;;;3.95;1.60;;;11.90;99.90;;;;;;5066006;28;20041;-60
2023/09/20 02:55:21;;;;;;;3.35;1.40;;;11.90;99.90;;;;;;5070261;28;20139;-62
2023/09/20 02:57:50;;;;;;;3.30;1.50;;;11.80;99.90;;;;;;5070412;28;20063;-62
2023/09/20 03:00:18;;;;;;;2.33;1.58;;;11.70;99.90;;;;;;5070554;28;20059;-61
2023/09/20 03:02:50;;;;;;;7.07;1.67;;;11.80;99.90;;;;;;5069000;28;20089;-62
2023/09/20 03:05:24;;;;;;;6.55;2.17;;;11.70;99.90;;;;;;5069849;28;20052;-62
2023/09/20 03:07:53;;;;;;;2.85;1.38;;;11.70;99.90;;;;;;5067310;28;20037;-62
2023/09/20 03:10:21;;;;;;;6.35;1.55;;;11.70;99.90;;;;;;5069837;28;20060;-62
2023/09/20 03:12:51;;;;;;;2.63;1.00;;;11.70;99.90;;;;;;5066331;28;20045;-61
2023/09/20 03:15:21;;;;;;;2.67;1.25;;;11.70;99.90;;;;;;5070327;28;20040;-62
2023/09/20 03:17:50;;;;;;;3.90;1.23;;;11.70;99.90;;;;;;5070717;28;20048;-62
2023/09/20 03:20:25;;;;;;;5.10;1.40;;;11.70;99.90;;;;;;5069914;28;20049;-61
2023/09/20 03:22:59;;;;;;;2.97;1.30;;;11.70;99.90;;;;;;5064679;28;20509;-60
2023/09/20 03:25:38;;;;;;;1.50;1.30;;;11.60;99.90;;;;;;5069032;28;20057;-61
2023/09/20 03:28:22;;;;;;;4.95;1.35;;;11.60;99.90;;;;;;5070556;28;20130;-62
2023/09/20 03:30:51;;;;;;;3.50;1.60;;;11.60;99.90;;;;;;5066682;28;20048;-62
2023/09/20 03:33:20;;;;;;;3.55;1.98;;;11.50;99.90;;;;;;5065252;28;20051;-61
2023/09/20 03:35:48;;;;;;;4.68;2.22;;;11.60;99.90;;;;;;5065877;28;20414;-62
2023/09/20 03:38:15;;;;;;;7.07;2.30;;;11.70;99.90;;;;;;5068869;28;20047;-62
2023/09/20 03:40:43;;;;;;;6.57;2.65;;;11.70;99.90;;;;;;5067252;28;20495;-60
2023/09/20 03:43:10;;;;;;;3.08;2.33;;;11.70;99.90;;;;;;5069077;28;20048;-61
2023/09/20 03:45:43;;;;;;;3.03;2.00;;;11.80;99.90;;;;;;5062843;28;20037;-61
2023/09/20 03:48:11;;;;;;;3.72;1.88;;;11.80;99.90;;;;;;5060826;28;20499;-62
2023/09/20 03:50:43;;;;;;;4.50;1.48;;;11.80;99.90;;;;;;5070546;28;20499;-61
2023/09/20 03:53:11;;;;;;;2.47;0.90;;;11.70;99.90;;;;;;5064941;28;20067;-61
2023/09/20 03:55:46;;;;;;;2.10;1.23;;;11.60;99.90;;;;;;5069128;28;20067;-60
2023/09/20 03:58:12;;;;;;;4.88;1.00;;;11.60;99.90;;;;;;5064024;28;20445;-62
2023/09/20 04:00:42;;;;;;;3.63;0.90;;;11.60;99.90;;;;;;5068762;28;20051;-62
2023/09/20 04:03:11;;;;;;;4.80;1.30;;;11.70;99.90;;;;;;5069255;28;20118;-62
2023/09/20 04:05:39;;;;;;;3.33;1.45;;;11.70;99.90;;;;;;5060092;28;20040;-62
2023/09/20 04:08:16;;;;;;;4.45;1.13;;;11.80;99.90;;;;;;5049085;28;20037;-62
2023/09/20 04:10:45;;;;;;;4.90;1.10;;;11.80;99.90;;;;;;5063929;28;20540;-62
2023/09/20 04:13:12;;;;;;;3.88;1.30;;;11.80;99.90;;;;;;5065758;28;20456;-60
2023/09/20 04:15:40;;;;;;;1.95;1.02;;;11.80;99.90;;;;;;5068561;28;20051;-62
2023/09/20 04:18:09;;;;;;;2.33;1.10;;;11.70;99.90;;;;;;5059882;28;20044;-61
2023/09/20 04:20:37;;;;;;;4.95;1.15;;;11.80;99.90;;;;;;5060998;28;20040;-61
2023/09/20 04:23:06;;;;;;;3.40;1.90;;;11.80;99.90;;;;;;5068474;28;20136;-61
2023/09/20 04:25:33;;;;;;;;;;;11.80;99.90;;;;;;5067337;28;20387;-61
2023/09/20 04:28:00;;;;;;;1.55;1.15;;;11.80;99.90;;;;;;5068851;28;19962;-62
2023/09/20 04:30:29;;;;;;;1.48;1.10;;;11.80;99.90;;;;;;5068040;28;20090;-62
2023/09/20 04:32:56;;;;;;;6.45;1.60;;;11.80;99.90;;;;;;5062710;28;20045;-61
2023/09/20 04:35:37;;;;;;;2.42;1.13;;;11.80;99.90;;;;;;5068912;28;20036;-61
2023/09/20 04:38:08;;;;;;;3.03;1.20;;;11.80;99.90;;;;;;5066031;28;20629;-61
2023/09/20 04:40:35;;;;;;;7.85;1.70;;;11.80;99.90;;;;;;5065787;28;20106;-62
2023/09/20 04:43:02;;;;;;;4.88;1.10;;;11.80;99.90;;;;;;5067950;28;20537;-62
2023/09/20 04:45:30;;;;;;;4.78;1.17;;;11.90;99.90;;;;;;5063801;28;20056;-62
2023/09/20 04:47:57;;;;;;;1.73;1.10;;;11.90;99.90;;;;;;5069122;28;20083;-61
2023/09/20 04:50:25;;;;;;;3.60;1.15;;;11.90;99.90;;;;;;5066381;28;20132;-58
2023/09/20 04:52:52;;;;;;;;;;;11.90;99.90;;;;;;5057283;28;20538;-61
2023/09/20 04:55:19;;;;;;;2.13;1.10;;;11.90;99.90;;;;;;5066422;28;19928;-61
2023/09/20 04:57:46;;;;;;;3.03;1.40;;;12.00;99.90;;;;;;5069135;28;20656;-62
2023/09/20 05:00:15;;;;;;;2.47;1.48;;;12.00;99.90;;;;;;5066534;28;20068;-62
2023/09/20 05:02:45;;;;;;;3.50;1.63;;;12.00;99.90;;;;;;5044259;28;20170;-59
2023/09/20 05:05:12;;;;;;;2.42;1.55;;;12.10;99.90;;;;;;5067495;28;20037;-62
2023/09/20 05:07:40;;;;;;;2.38;1.70;;;12.20;99.90;;;;;;5061081;28;20040;-61
2023/09/20 05:10:08;;;;;;;7.63;2.08;;;12.20;99.90;;;;;;5067841;28;20040;-61
2023/09/20 05:12:35;;;;;;;5.47;2.25;;;12.20;99.90;;;;;;5068971;28;20086;-61
2023/09/20 05:15:03;;;;;;;5.30;2.10;;;12.30;99.90;;;;;;5050154;28;20071;-62
2023/09/20 05:17:30;;;;;;;5.00;2.30;;;12.30;99.90;;;;;;5069806;28;20044;-62
2023/09/20 05:19:58;;;;;;;10.35;2.60;;;12.40;99.90;;;;;;5067918;28;20071;-61
2023/09/20 05:22:25;;;;;;;5.47;2.40;;;12.40;99.90;;;;;;5068179;28;20042;-62
2023/09/20 05:24:52;;;;;;;3.25;2.33;;;12.40;99.90;;;;;;5066600;28;20040;-61
2023/09/20 05:27:18;;;;;;;5.65;2.42;;;12.40;99.90;;;;;;5068425;28;20412;-61
2023/09/20 05:29:45;;;;;;;3.17;2.25;;;12.40;99.90;;;;;;5064688;28;20060;-62
2023/09/20 05:32:12;;;;;;;4.70;2.50;;;12.40;99.90;;;;;;5068323;28;20045;-62
2023/09/20 05:34:39;;;;;;;3.70;2.50;;;12.50;99.90;;;;;;5065122;28;20040;-62
2023/09/20 05:37:07;;;;;;;4.75;2.58;;;12.50;99.90;;;;;;5065257;28;20044;-59
2023/09/20 05:39:34;;;;;;;3.40;2.38;;;12.50;99.90;;;;;;5063152;28;20393;-62
2023/09/20 05:42:03;;;;;;;5.00;2.40;;;12.50;99.90;;;;;;5068988;28;20098;-62
2023/09/20 05:44:30;;;;;;;6.15;2.85;;;12.50;99.90;;;;;;5058667;28;20049;-62
2023/09/20 05:46:58;;;;;;;5.40;2.33;;;12.60;99.90;;;;;;5069011;28;20049;-60
2023/09/20 05:49:25;;;;;;;5.03;2.40;;;12.60;99.90;;;;;;5069215;28;20043;-61
2023/09/20 05:51:52;;;;;;;3.60;2.20;;;12.60;99.90;;;;;;5065489;28;20047;-62
2023/09/20 05:54:19;;;;;;;3.22;2.88;;;12.60;99.90;;;;;;5072268;28;20424;-62
2023/09/20 05:56:46;;;;;;;4.32;1.50;;;12.60;99.90;;;;;;5061556;28;20039;-61
2023/09/20 05:59:13;;;;;;;3.15;1.58;;;12.60;99.90;;;;;;5068507;28;20455;-62
2023/09/20 06:01:40;;;;;;;2.40;1.45;;;12.50;99.90;;;;;;5072014;28;20040;-62
2023/09/20 06:04:09;;;;;;;4.63;1.75;;;12.60;99.90;;;;;;5063881;28;20045;-61
2023/09/20 06:06:39;;;;;;;2.80;1.60;;;12.60;99.90;;;;;;5070251;28;20135;-62
2023/09/20 06:09:06;;;;;;;4.43;2.05;;;12.60;99.90;;;;;;5070499;28;20391;-62
2023/09/20 06:11:33;;;;;;;3.20;2.30;;;12.60;99.90;;;;;;5063490;28;20063;-62
2023/09/20 06:14:00;;;;;;;7.57;2.53;;;12.70;99.90;;;;;;5070406;28;20421;-62
2023/09/20 06:16:27;;;;;;;4.20;1.92;;;12.80;99.90;;;;;;5069575;28;20032;-62
2023/09/20 06:18:54;;;;;;;10.60;2.03;;;12.80;99.90;;;;;;5068936;28;20106;-62
2023/09/20 06:21:32;;;;;;;6.05;2.45;;;13.00;99.90;;;;;;5071186;28;20040;-62
2023/09/20 06:24:01;;;;;;;7.18;3.58;;;13.10;99.90;;;;;;5069043;28;20040;-62
2023/09/20 06:26:28;;;;;;;4.90;2.90;;;13.20;99.90;;;;;;5071901;28;20124;-61
2023/09/20 06:28:55;;;;;;;7.05;3.35;;;13.30;99.90;;;;;;5070620;28;20102;-61
2023/09/20 06:31:22;;;;;;;9.20;3.72;;;13.40;99.90;;;;;;5071311;28;20065;-62
2023/09/20 06:33:49;;;;;;;9.02;3.60;;;13.40;99.90;;;;;;5068963;28;20047;-62
2023/09/20 06:36:17;;;;;;;;;;;13.40;99.90;;;;;;5069487;28;20048;-62
2023/09/20 06:38:45;;;;;;;5.47;3.90;;;13.50;99.90;;;;;;5071232;28;19956;-62
2023/09/20 06:41:13;;;;;;;6.80;4.25;;;13.60;99.90;;;;;;5064168;28;20068;-61
2023/09/20 06:43:42;;;;;;;9.65;4.07;;;13.60;99.90;;;;;;5070974;28;20047;-62
2023/09/20 06:46:09;;;;;;;5.20;3.58;;;13.70;99.90;;;;;;5070296;28;20056;-62
2023/09/20 06:48:37;;;;;;;5.65;3.70;;;13.80;99.90;;;;;;5069399;28;20444;-62
2023/09/20 06:51:04;;;;;;;5.68;3.53;;;14.00;99.90;;;;;;5071803;28;20075;-62
2023/09/20 06:53:31;;;;;;;4.18;3.30;;;14.10;99.90;;;;;;5070737;28;20100;-62
2023/09/20 06:55:59;;;;;;;8.38;3.42;;;14.30;99.90;;;;;;5069807;28;20062;-62
2023/09/20 06:58:28;;;;;;;4.10;3.05;;;14.50;99.90;;;;;;5064113;28;20053;-61
2023/09/20 07:00:55;;;;;;;4.40;2.50;;;14.60;99.90;;;;;;5070992;28;20050;-62
2023/09/20 07:03:22;;;;;;;;;;;14.80;99.90;;;;;;5070307;28;20044;-61
2023/09/20 07:05:51;;;;;;;4.22;2.67;;;14.90;99.90;;;;;;5070447;28;20408;-62
2023/09/20 07:08:19;;;;;;;6.40;2.60;;;15.00;99.90;;;;;;5062898;28;20044;-62
2023/09/20 07:10:46;;;;;;;4.07;3.15;;;15.00;99.90;;;;;;5070545;28;20044;-62
2023/09/20 07:13:16;;;;;;;4.70;2.72;;;14.90;99.90;;;;;;5070926;28;20048;-61
2023/09/20 07:15:43;;;;;;;9.02;3.40;;;14.90;99.90;;;;;;5061295;28;20506;-62
2023/09/20 07:18:13;;;;;;;7.40;3.00;;;14.80;99.90;;;;;;5069935;28;20047;-62
2023/09/20 07:20:41;;;;;;;4.00;2.42;;;14.70;99.90;;;;;;5069953;28;20489;-62
2023/09/20 07:23:12;;;;;;;5.90;3.28;;;14.80;99.90;;;;;;5070801;28;20048;-62
2023/09/20 07:25:39;;;;;;;9.82;3.13;;;14.80;99.90;;;;;;5067160;28;20043;-62
2023/09/20 07:28:07;;;;;;;5.43;2.97;;;14.90;99.90;;;;;;5070722;28;20047;-62
2023/09/20 07:30:39;;;;;;;6.05;3.05;;;14.90;99.90;;;;;;5060852;28;20048;-62
2023/09/20 07:33:12;;;;;;;4.88;3.00;;;15.10;99.90;;;;;;5070316;28;20138;-61
2023/09/20 07:35:47;;;;;;;5.43;3.20;;;15.10;99.90;;;;;;5067159;28;20167;-62
2023/09/20 07:38:26;;;;;;;6.80;2.80;;;15.10;99.90;;;;;;5065189;28;20041;-62
2023/09/20 07:41:09;;;;;;;4.28;3.15;;;15.10;99.90;;;;;;5058258;28;20049;-62
2023/09/20 07:43:42;;;;;;;9.02;3.00;;;15.10;99.90;;;;;;5067408;28;20049;-62
2023/09/20 07:46:09;;;;;;;7.25;2.92;;;15.10;99.90;;;;;;5069887;28;20035;-62
2023/09/20 07:48:47;;;;;;;;;;;15.00;99.90;;;;;;5070585;28;20394;-62
2023/09/20 07:51:19;;;;;;;10.23;2.75;;;15.10;99.90;;;;;;5061862;28;19920;-61
2023/09/20 07:53:52;;;;;;;9.27;3.13;;;15.10;99.90;;;;;;5070082;28;20121;-62
2023/09/20 07:56:20;;;;;;;7.50;2.75;;;15.30;99.90;;;;;;5064608;28;20071;-62
2023/09/20 07:58:47;;;;;;;8.20;2.50;;;15.40;99.90;;;;;;5070107;28;20048;-62
2023/09/20 08:01:20;;;;;;;;;;;15.50;99.90;;;;;;5066566;28;20526;-62
2023/09/20 08:03:51;;;;;;;6.00;2.35;;;15.60;99.90;;;;;;5070004;28;19924;-60
2023/09/20 08:06:21;;;;;;;7.72;2.78;;;15.70;99.90;;;;;;5068723;28;20044;-61
2023/09/20 08:08:48;;;;;;;6.18;2.80;;;15.80;99.90;;;;;;5065536;28;20494;-62
2023/09/20 08:11:16;;;;;;;5.40;2.25;;;15.90;99.90;;;;;;5069682;28;20048;-61
2023/09/20 08:13:50;;;;;;;3.15;2.33;;;16.00;99.90;;;;;;5069722;28;20064;-62
2023/09/20 08:16:17;;;;;;;6.53;2.55;;;16.20;99.90;;;;;;5054660;28;20402;-62
2023/09/20 08:21:34;;;;;;;6.28;2.30;;;16.50;99.90;;;;;;5068341;28;20067;-62
2023/09/20 09:00:34;;;;;;;5.70;1.70;;;18.10;99.90;;;;;;5062125;28;20044;-62
2023/09/20 09:03:03;;;;;;;5.43;2.08;;;18.10;99.90;;;;;;5063316;28;20040;-62
2023/09/20 09:05:31;;;;;;;8.40;1.73;;;18.30;99.90;;;;;;5062093;28;20047;-62
2023/09/20 09:08:00;;;;;;;5.72;2.00;;;18.30;99.90;;;;;;5068354;28;20111;-62
2023/09/20 09:10:29;;;;;;;4.93;1.80;;;18.50;99.90;;;;;;5067794;28;20036;-62
2023/09/20 09:12:55;;;;;;;2.97;1.80;;;18.50;99.90;;;;;;5061090;28;20098;-62
2023/09/20 09:15:23;;;;;;;3.75;1.65;;;18.70;99.90;;;;;;5067154;28;20571;-62
2023/09/20 09:17:50;;;;;;;6.18;1.85;;;18.80;99.90;;;;;;5067643;28;20094;-62
2023/09/20 09:20:21;;;;;;;;;;;18.80;99.90;;;;;;5065281;28;20059;-62
2023/09/20 09:22:49;;;;;;;4.07;1.80;;;18.90;99.90;;;;;;5069095;28;19920;-62
2023/09/20 09:25:30;;;;;;;5.28;1.60;;;19.00;99.90;;;;;;5068649;28;20064;-62
2023/09/20 09:27:58;;;;;;;4.90;2.13;;;19.10;99.90;;;;;;5071448;28;20094;-62
2023/09/20 09:30:25;;;;;;;5.82;1.63;;;19.20;99.90;;;;;;5066852;28;20115;-62
2023/09/20 09:32:54;;;;;;;3.88;2.00;;;19.20;99.90;;;;;;5072895;28;20504;-62
2023/09/20 09:35:22;;;;;;;4.22;2.00;;;19.20;99.90;;;;;;5071140;28;20392;-64
2023/09/20 09:38:06;;;;;;;3.47;1.60;;;19.30;99.90;;;;;;5054754;28;20098;-62
2023/09/20 09:40:50;;;;;;;3.05;1.58;;;19.50;99.90;;;;;;5072555;28;20044;-62
2023/09/20 09:43:17;;;;;;;3.15;1.55;;;19.50;99.90;;;;;;5061056;28;20528;-62
2023/09/20 09:45:46;;;;;;;;;;;19.40;99.90;;;;;;5053700;28;20115;-62
2023/09/20 09:48:16;;;;;;;3.40;1.77;;;19.50;99.90;;;;;;5071537;28;19920;-62
2023/09/20 09:50:46;;;;;;;2.83;1.50;;;19.70;99.90;;;;;;5069153;28;20036;-62
2023/09/20 09:53:15;;;;;;;2.70;1.35;;;19.80;99.90;;;;;;5065125;28;20043;-62
2023/09/20 09:55:42;;;;;;;4.07;1.40;;;20.00;99.90;;;;;;5060480;28;20507;-63
2023/09/20 09:58:09;;;;;;;3.00;1.50;;;20.10;99.90;;;;;;5072746;28;20087;-62
2023/09/20 10:00:39;;;;;;;7.03;1.85;;;20.10;99.90;;;;;;5062604;28;20056;-62
2023/09/20 10:03:29;;;;;;;3.40;1.55;;;20.20;99.90;;;;;;5063368;28;20032;-62
2023/09/20 10:06:05;;;;;;;3.45;1.60;;;20.40;99.90;;;;;;5071204;28;20032;-62
2023/09/20 10:08:38;;;;;;;2.42;1.60;;;20.60;99.90;;;;;;5059833;28;20037;-62
2023/09/20 10:11:05;;;;;;;2.47;1.65;;;20.60;99.90;;;;;;5071793;28;20041;-62
2023/09/20 10:13:37;;;;;;;2.20;1.45;;;20.70;99.90;;;;;;5071888;28;20076;-62
2023/09/20 10:16:10;;;;;;;2.70;1.70;;;20.80;99.90;;;;;;5069790;28;20051;-62
2023/09/20 10:18:53;;;;;;;6.28;1.70;;;20.90;99.90;;;;;;5072585;28;20406;-62
2023/09/20 10:21:30;;;;;;;2.90;1.58;;;21.00;99.90;;;;;;5071248;28;20056;-63
2023/09/20 10:23:58;;;;;;;3.28;1.38;;;21.10;99.90;;;;;;5069239;28;20056;-62
2023/09/20 10:26:26;;;;;;;4.50;1.10;;;21.00;99.90;;;;;;5071503;28;20493;-63
2023/09/20 10:28:58;;;;;;;2.20;1.42;;;21.20;99.90;;;;;;5071072;28;20049;-62
2023/09/20 10:31:27;;;;;;;2.72;1.60;;;21.20;99.90;;;;;;5071817;28;20520;-62
2023/09/20 10:33:55;;;;;;;3.80;1.98;;;21.20;99.90;;;;;;5066733;28;20063;-62
2023/09/20 10:36:27;;;;;;;2.92;1.83;;;21.30;99.90;;;;;;5071972;28;20044;-63
2023/09/20 10:39:33;;;;;;;2.67;1.67;;;21.20;99.90;;;;;;5067592;28;20053;-62
2023/09/20 10:42:10;;;;;;;2.03;1.25;;;21.40;99.90;;;;;;5029090;28;20061;-63
2023/09/20 10:44:42;;;;;;;2.10;1.55;;;21.50;99.90;;;;;;5027088;28;20417;-62
2023/09/20 10:47:14;;;;;;;3.05;1.70;;;21.50;99.90;;;;;;5053479;28;20450;-62
2023/09/20 10:49:49;;;;;;;4.13;1.40;;;21.60;99.90;;;;;;5070288;28;20040;-63
2023/09/20 10:52:34;;;;;;;2.13;1.70;;;21.60;99.90;;;;;;5060129;28;20045;-62
2023/09/20 10:55:18;;;;;;;1.52;1.30;;;21.70;99.90;;;;;;5069489;28;20080;-62
2023/09/20 10:57:46;;;;;;;3.50;1.50;;;21.80;99.90;;;;;;5071162;28;20374;-62
2023/09/20 11:00:14;;;;;;;2.33;1.40;;;21.80;99.90;;;;;;5062405;28;20037;-62
2023/09/20 11:02:42;;;;;;;5.82;1.23;;;21.90;99.90;;;;;;5070508;28;20055;-63
2023/09/20 11:05:11;;;;;;;4.28;1.42;;;22.00;99.90;;;;;;5069681;28;20068;-63
2023/09/20 11:07:41;;;;;;;7.05;1.50;;;22.10;99.90;;;;;;5068457;28;20036;-62
2023/09/20 11:10:19;;;;;;;2.20;1.40;;;22.10;99.90;;;;;;5067497;28;20460;-63
2023/09/20 11:12:46;;;;;;;2.47;1.50;;;22.00;99.90;;;;;;5070831;28;20036;-63
2023/09/20 11:15:13;;;;;;;1.58;1.30;;;22.00;99.90;;;;;;5068752;28;20039;-62
2023/09/20 11:17:40;;;;;;;;;;;22.20;99.90;;;;;;5071663;28;20055;-63
2023/09/20 11:20:10;;;;;;;3.35;1.67;;;22.20;99.90;;;;;;5069410;28;19920;-63
2023/09/20 11:22:38;;;;;;;2.67;1.30;;;22.40;99.90;;;;;;5070851;28;20127;-62
2023/09/20 11:25:05;;;;;;;2.15;1.33;;;22.20;99.90;;;;;;5067987;28;20094;-63
2023/09/20 11:27:34;;;;;;;;;;;22.20;99.90;;;;;;5071391;28;20040;-63
2023/09/20 11:30:05;;;;;;;2.13;1.23;;;22.30;99.90;;;;;;5067883;28;19924;-62
2023/09/20 11:32:33;;;;;;;3.05;1.30;;;22.30;99.90;;;;;;5070707;28;20079;-63
2023/09/20 11:35:01;;;;;;;;;;;22.40;99.90;;;;;;5069593;28;20052;-63
2023/09/20 11:37:30;;;;;;;1.75;1.35;;;22.60;99.90;;;;;;5070829;28;19921;-63
2023/09/20 11:39:57;;;;;;;5.05;1.98;;;22.70;99.90;;;;;;5068135;28;20044;-62
2023/09/20 11:42:30;;;;;;;4.22;1.30;;;22.80;99.90;;;;;;5070408;28;20114;-62
2023/09/20 11:45:01;;;;;;;2.13;1.42;;;22.70;99.90;;;;;;5067240;28;20049;-63
2023/09/20 11:47:50;;;;;;;1.85;1.17;;;22.70;99.90;;;;;;5070529;28;20087;-63
2023/09/20 11:50:17;;;;;;;2.40;1.42;;;22.90;99.90;;;;;;5068139;28;20707;-62
2023/09/20 11:52:46;;;;;;;2.20;1.08;;;23.00;99.90;;;;;;5065921;28;20111;-63
2023/09/20 11:55:14;;;;;;;1.98;1.35;;;23.00;99.90;;;;;;5069883;28;20094;-63
2023/09/20 11:57:47;;;;;;;3.70;1.58;;;23.00;99.90;;;;;;5070144;28;20098;-63
2023/09/20 12:00:19;;;;;;;2.10;1.75;;;23.10;99.90;;;;;;5070238;28;20549;-63
2023/09/20 12:02:47;;;;;;;1.67;1.30;;;23.10;99.90;;;;;;5067914;28;20477;-63
2023/09/20 12:05:17;;;;;;;2.72;1.30;;;23.30;99.90;;;;;;5069898;28;20393;-63
2023/09/20 12:07:56;;;;;;;3.45;1.40;;;23.30;99.90;;;;;;5069395;28;20090;-63
2023/09/20 12:10:26;;;;;;;4.35;1.85;;;23.50;99.90;;;;;;5062417;28;20044;-63
2023/09/20 12:12:53;;;;;;;4.57;1.40;;;23.50;99.90;;;;;;5064680;28;20074;-63
2023/09/20 12:15:23;;;;;;;2.45;1.42;;;23.40;99.90;;;;;;5062103;28;20063;-63
2023/09/20 12:17:51;;;;;;;2.85;1.42;;;23.30;99.90;;;;;;5069415;28;20044;-63
2023/09/20 12:20:19;;;;;;;1.52;1.20;;;23.30;99.90;;;;;;5069940;28;20412;-63
2023/09/20 12:22:46;;;;;;;;;;;23.30;99.90;;;;;;5064076;28;20048;-63
2023/09/20 12:25:15;;;;;;;2.10;1.50;;;23.30;99.90;;;;;;5068227;28;20014;-63
2023/09/20 12:27:43;;;;;;;1.95;1.33;;;23.50;99.90;;;;;;5069571;28;20040;-63
2023/09/20 12:30:12;;;;;;;3.72;1.60;;;23.70;99.90;;;;;;5069222;28;20143;-63
2023/09/20 12:32:43;;;;;;;1.77;1.40;;;23.80;99.90;;;;;;5066895;28;20028;-63
2023/09/20 12:35:11;;;;;;;3.78;1.50;;;23.90;99.90;;;;;;5069770;28;20432;-63
2023/09/20 12:37:38;;;;;;;2.42;1.45;;;24.00;99.90;;;;;;5069647;28;20075;-63
2023/09/20 12:40:08;;;;;;;3.30;1.50;;;24.10;99.90;;;;;;5066358;28;20037;-63
2023/09/20 12:42:37;;;;;;;1.85;1.63;;;24.10;99.90;;;;;;5069872;28;20067;-63
2023/09/20 12:45:07;;;;;;;3.55;1.70;;;24.00;99.90;;;;;;5058948;28;20041;-63
2023/09/20 12:47:35;;;;;;;5.28;1.38;;;24.00;99.90;;;;;;5070168;28;20044;-63
2023/09/20 12:50:03;;;;;;;2.35;1.80;;;23.90;99.90;;;;;;5067502;28;20139;-63
2023/09/20 12:52:31;;;;;;;4.65;2.00;;;23.90;99.90;;;;;;5069374;28;20254;-63
2023/09/20 12:54:58;;;;;;;1.98;1.75;;;23.90;99.90;;;;;;5064919;28;20362;-63
2023/09/20 12:57:26;;;;;;;2.47;1.73;;;24.00;99.90;;;;;;5069705;28;20078;-62
2023/09/20 12:59:53;;;;;;;;;;;23.80;99.90;;;;;;5069751;28;20463;-62
2023/09/20 13:02:20;;;;;;;3.58;2.00;;;23.70;99.90;;;;;;5071076;28;19924;-63
2023/09/20 13:04:47;;;;;;;2.30;1.77;;;23.50;99.90;;;;;;5071108;28;20074;-63
2023/09/20 13:07:14;;;;;;;4.68;2.60;;;23.40;99.90;;;;;;5072633;28;20045;-63
2023/09/20 13:09:42;;;;;;;2.60;1.90;;;23.30;99.90;;;;;;5073441;28;20386;-63
2023/09/20 13:12:09;;;;;;;4.22;2.13;;;23.30;99.90;;;;;;5067304;28;20040;-63
2023/09/20 13:14:36;;;;;;;;;;;23.20;99.90;;;;;;5074211;28;20040;-63
2023/09/20 13:17:02;;;;;;;5.05;1.67;;;23.10;99.90;;;;;;5072239;28;19920;-63
2023/09/20 13:19:29;;;;;;;2.85;1.40;;;23.00;99.90;;;;;;5073448;28;20135;-62
2023/09/20 13:21:59;;;;;;;2.17;1.40;;;23.10;99.90;;;;;;5069599;28;20556;-63
2023/09/20 13:24:26;;;;;;;1.63;1.40;;;23.10;99.90;;;;;;5067125;28;20047;-63
2023/09/20 13:26:52;;;;;;;1.55;1.42;;;23.30;99.90;;;;;;5072892;28;20045;-63
2023/09/20 13:29:19;;;;;;;1.25;1.05;;;23.50;99.90;;;;;;5073043;28;20396;-63
2023/09/20 13:31:47;;;;;;;;;;;23.70;99.90;;;;;;5066683;28;20040;-63
2023/09/20 13:34:16;;;;;;;1.50;1.20;;;24.00;99.90;;;;;;5073104;28;20432;-63
2023/09/20 13:36:44;;;;;;;2.88;1.33;;;24.40;99.90;;;;;;5072407;28;20033;-63
2023/09/20 13:39:11;;;;;;;1.65;1.30;;;24.60;99.90;;;;;;5071581;28;20048;-63
2023/09/20 13:41:39;;;;;;;1.80;1.20;;;24.80;99.90;;;;;;5067157;28;20225;-63